Sunday, December 8, 2019, 4:59 PM EST
Back to Local

KSNC, Chester, Chester Airport

Location: Chester, CT, United States Lat: 41.384
Local Time: 4:59 PM EST (21:59 GMT) Lon: -72.506
Time Zone: US/Eastern Elev: 416 ft

Show me the last for .
Show Decoded

2019-12-08 16:35 METAR KSNC 082135Z AUTO 18004KT 10SM CLR 01/M06 A3043 RMK AO2 =
2019-12-08 16:15 METAR KSNC 082115Z AUTO 19005KT 10SM CLR 01/M07 A3044 RMK AO2 =
2019-12-08 15:55 METAR KSNC 082055Z AUTO 19005KT 10SM CLR 01/M08 A3045 RMK AO2 =
2019-12-08 15:35 METAR KSNC 082035Z AUTO VRB03KT 10SM CLR 01/M08 A3045 RMK AO2 =
2019-12-08 15:15 METAR KSNC 082015Z AUTO 18003KT 10SM CLR 01/M08 A3045 RMK AO2 =
2019-12-08 14:55 METAR KSNC 081955Z AUTO VRB05KT 10SM CLR 01/M09 A3045 RMK AO2 =
2019-12-08 14:35 METAR KSNC 081935Z AUTO VRB06G11KT 10SM 01/M09 A3045 RMK AO2 =
2019-12-08 14:15 METAR KSNC 081915Z AUTO VRB04KT 10SM CLR 01/M09 A3045 RMK AO2 =
2019-12-08 13:55 METAR KSNC 081855Z AUTO 17005KT 10SM CLR 01/M08 A3045 RMK AO2 =
2019-12-08 13:35 METAR KSNC 081835Z AUTO VRB05KT 10SM CLR 01/M09 A3045 RMK AO2 =
2019-12-08 13:15 METAR KSNC 081815Z AUTO 18007KT 10SM CLR 01/M10 A3046 RMK AO2 =
2019-12-08 12:55 METAR KSNC 081755Z AUTO 18008KT 10SM CLR 01/M12 A3047 RMK AO2 =
2019-12-08 12:35 METAR KSNC 081735Z AUTO 19005KT 10SM CLR 01/M12 A3047 RMK AO2 =
2019-12-08 12:15 METAR KSNC 081715Z AUTO 17005KT 10SM CLR 01/M12 A3048 RMK AO2 =
2019-12-08 11:55 METAR KSNC 081655Z AUTO VRB04KT 10SM CLR 01/M12 A3049 RMK AO2 =
2019-12-08 11:35 METAR KSNC 081635Z AUTO 15007KT 10SM CLR 01/M12 A3049 RMK AO2 =
2019-12-08 11:15 METAR KSNC 081615Z AUTO 15005KT 10SM CLR 00/M12 A3050 RMK AO2 =
2019-12-08 10:55 METAR KSNC 081555Z AUTO 17005KT 10SM CLR M00/M12 A3051 RMK AO2 =
2019-12-08 10:35 METAR KSNC 081535Z AUTO 17005KT 10SM CLR M00/M11 A3052 RMK AO2 =
2019-12-08 10:15 METAR KSNC 081515Z AUTO 15005KT 10SM CLR M01/M11 A3052 RMK AO2 =
2019-12-08 09:55 METAR KSNC 081455Z AUTO 16005KT 10SM CLR M02/M12 A3053 RMK AO2 =
2019-12-08 09:35 METAR KSNC 081435Z AUTO 00000KT 10SM CLR M02/M11 A3053 RMK AO2 =
2019-12-08 08:55 METAR KSNC 081355Z AUTO 00000KT 10SM CLR M03/M10 A3053 RMK AO2 =
2019-12-08 08:35 METAR KSNC 081335Z AUTO 00000KT 10SM CLR M03/M10 A3053 RMK AO2 =
2019-12-08 08:15 METAR KSNC 081315Z AUTO 00000KT 10SM CLR M05/M09 A3052 RMK AO2 =
2019-12-08 07:55 METAR KSNC 081255Z AUTO 00000KT 10SM CLR M07/M10 A3053 RMK AO2 =
2019-12-08 07:35 METAR KSNC 081235Z AUTO 00000KT 10SM CLR M07/M10 A3052 RMK AO2 =
2019-12-08 07:15 METAR KSNC 081215Z AUTO 00000KT 10SM CLR M08/M10 A3052 RMK AO2 =
2019-12-08 06:55 METAR KSNC 081155Z AUTO 00000KT 10SM CLR M08/M10 A3052 RMK AO2 =
2019-12-08 06:35 METAR KSNC 081135Z AUTO 00000KT 10SM CLR M08/M10 A3052 RMK AO2 =
2019-12-08 06:15 METAR KSNC 081115Z AUTO 00000KT 10SM CLR M09/M11 A3051 RMK AO2 =
2019-12-08 05:55 METAR KSNC 081055Z AUTO 00000KT 10SM CLR M09/M11 A3050 RMK AO2 =
2019-12-08 05:35 METAR KSNC 081035Z AUTO 00000KT 10SM CLR M09/M11 A3050 RMK AO2 =
2019-12-08 05:15 METAR KSNC 081015Z AUTO 00000KT 10SM CLR M09/M11 A3050 RMK AO2 =
2019-12-08 04:55 METAR KSNC 080955Z AUTO 00000KT 10SM CLR M09/M11 A3050 RMK AO2 =
2019-12-08 04:35 METAR KSNC 080935Z AUTO 00000KT 10SM CLR M09/M11 A3049 RMK AO2 =
2019-12-08 04:15 METAR KSNC 080915Z AUTO 00000KT 10SM CLR M08/M11 A3049 RMK AO2 =
2019-12-08 03:55 METAR KSNC 080855Z AUTO 00000KT 10SM CLR M08/M11 A3050 RMK AO2 =
2019-12-08 03:35 METAR KSNC 080835Z AUTO 30003KT 10SM CLR M08/M11 A3050 RMK AO2 =
2019-12-08 03:15 METAR KSNC 080815Z AUTO 00000KT 10SM CLR M09/M11 A3049 RMK AO2 =
2019-12-08 02:55 METAR KSNC 080755Z AUTO 29003KT 10SM CLR M08/M11 A3049 RMK AO2 =
2019-12-08 02:35 METAR KSNC 080735Z AUTO 00000KT 10SM CLR M08/M11 A3049 RMK AO2 =
2019-12-08 02:15 METAR KSNC 080715Z AUTO 00000KT 10SM CLR M08/M11 A3049 RMK AO2 =
2019-12-08 01:55 METAR KSNC 080655Z AUTO 00000KT 10SM CLR M07/M11 A3049 RMK AO2 =
2019-12-08 01:35 METAR KSNC 080635Z AUTO 30003KT 9SM CLR M07/M11 A3049 RMK AO2 =
2019-12-08 01:15 METAR KSNC 080615Z AUTO 00000KT 10SM CLR M07/M11 A3048 RMK AO2 =
2019-12-08 00:55 METAR KSNC 080555Z AUTO 00000KT 10SM CLR M06/M11 A3048 RMK AO2 =
2019-12-08 00:35 METAR KSNC 080535Z AUTO 00000KT 10SM CLR M06/M11 A3047 RMK AO2 =
2019-12-08 00:15 METAR KSNC 080515Z AUTO 00000KT 7SM CLR M06/M11 A3047 RMK AO2 =
2019-12-07 23:55 METAR KSNC 080455Z AUTO 00000KT 10SM CLR M06/M11 A3048 RMK AO2 =
2019-12-07 23:35 METAR KSNC 080435Z AUTO 33004KT 10SM CLR M05/M11 A3047 RMK AO2 =
2019-12-07 23:15 METAR KSNC 080415Z AUTO 31003KT 10SM CLR M05/M11 A3047 RMK AO2 =
2019-12-07 22:55 METAR KSNC 080355Z AUTO 00000KT 10SM CLR M05/M11 A3047 RMK AO2 =
2019-12-07 22:35 METAR KSNC 080335Z AUTO 36003KT 10SM CLR M04/M11 A3047 RMK AO2 =
2019-12-07 22:15 METAR KSNC 080315Z AUTO 00000KT 10SM CLR M04/M11 A3046 RMK AO2 =
2019-12-07 21:55 METAR KSNC 080255Z AUTO 34005KT 10SM CLR M04/M11 A3046 RMK AO2 =
2019-12-07 21:35 METAR KSNC 080235Z AUTO 33006KT 10SM CLR M03/M11 A3046 RMK AO2 =
2019-12-07 21:15 METAR KSNC 080215Z AUTO 32008KT 10SM CLR M03/M11 A3045 RMK AO2 =
2019-12-07 20:55 METAR KSNC 080155Z AUTO 32005KT 10SM CLR M03/M11 A3045 RMK AO2 =
2019-12-07 20:35 METAR KSNC 080135Z AUTO 34005KT 10SM CLR M03/M11 A3044 RMK AO2 =
2019-12-07 20:15 METAR KSNC 080115Z AUTO 32005KT 10SM CLR M03/M11 A3043 RMK AO2 =
2019-12-07 19:55 METAR KSNC 080055Z AUTO 34007KT 10SM CLR M02/M11 A3043 RMK AO2 =
2019-12-07 19:35 METAR KSNC 080035Z AUTO 32007G12KT 10SM CLR M02/M10 A3042 RMK AO2 =
2019-12-07 19:15 METAR KSNC 080015Z AUTO 33005KT 10SM CLR M02/M10 A3042 RMK AO2 =
2019-12-07 18:55 METAR KSNC 072355Z AUTO VRB05KT 10SM CLR M02/M10 A3041 RMK AO2 =
2019-12-07 18:35 METAR KSNC 072335Z AUTO 33007KT 10SM CLR M02/M10 A3041 RMK AO2 =
2019-12-07 18:15 METAR KSNC 072315Z AUTO 33006KT 10SM CLR M02/M11 A3040 RMK AO2 =
2019-12-07 17:55 METAR KSNC 072255Z AUTO 34004KT 10SM CLR M01/M11 A3039 RMK AO2 =
2019-12-07 17:35 METAR KSNC 072235Z AUTO 32004KT 10SM CLR M01/M11 A3038 RMK AO2 =
2019-12-07 17:15 METAR KSNC 072215Z AUTO 32005KT 10SM CLR M01/M11 A3037 RMK AO2 =

Support USWX by starting your Amazon purchase here.